Time;durP1;ratioP1;P1;durP2;ratioP2;P2;SDS_P1;SDS_P2;PMS_P1;PMS_P2;Temp;Humidity;BMP_temperature;BMP_pressure;BME280_temperature;BME280_humidity;BME280_pressure;Samples;Min_cycle;Max_cycle;Signal;HPM_P1;HPM_P2
2021/12/29 00:01:56;;;;;;;8.80;5.60;;;12.40;73.90;;;;;;6242703;28;20037;-72
2021/12/29 00:04:57;;;;;;;11.75;6.47;;;12.40;74.70;;;;;;6238434;28;20030;-73
2021/12/29 00:07:58;;;;;;;10.07;5.28;;;12.40;73.80;;;;;;6236686;28;20069;-73
2021/12/29 00:10:59;;;;;;;8.45;5.38;;;12.40;73.70;;;;;;6240237;28;20468;-73
2021/12/29 00:14:00;;;;;;;10.93;5.68;;;12.30;73.80;;;;;;6230792;28;20100;-73
2021/12/29 00:17:02;;;;;;;11.95;6.25;;;12.30;73.70;;;;;;6243860;28;20034;-73
2021/12/29 00:20:04;;;;;;;10.15;6.25;;;12.30;73.70;;;;;;6242855;28;20103;-73
2021/12/29 00:23:07;;;;;;;7.80;5.20;;;12.20;73.70;;;;;;6240812;28;20107;-73
2021/12/29 00:26:11;;;;;;;8.40;4.97;;;12.20;73.80;;;;;;6246256;28;20048;-72
2021/12/29 00:29:14;;;;;;;7.10;3.95;;;12.10;73.80;;;;;;6240159;28;20052;-72
2021/12/29 00:32:18;;;;;;;7.22;4.13;;;12.10;73.90;;;;;;6239036;28;20326;-72
2021/12/29 00:35:38;;;;;;;7.03;4.57;;;12.10;73.90;;;;;;6239927;28;20057;-73
2021/12/29 00:39:11;;;;;;;4.88;3.53;;;12.10;73.80;;;;;;6233161;28;20066;-73
2021/12/29 00:42:40;;;;;;;6.53;4.00;;;12.00;73.80;;;;;;6216524;28;20430;-72
2021/12/29 00:46:00;;;;;;;4.22;2.80;;;12.00;73.80;;;;;;6237841;28;20486;-72
2021/12/29 00:49:01;;;;;;;6.28;3.40;;;12.00;73.90;;;;;;6237573;28;20362;-72
2021/12/29 00:52:07;;;;;;;5.40;3.00;;;12.00;73.90;;;;;;6210535;28;20030;-72
2021/12/29 00:55:09;;;;;;;2.75;2.00;;;12.00;73.90;;;;;;6231172;28;20041;-72
2021/12/29 00:58:10;;;;;;;3.10;2.17;;;12.00;73.90;;;;;;6244078;28;20040;-72
2021/12/29 01:01:11;;;;;;;4.43;2.72;;;12.00;73.90;;;;;;6231534;28;20064;-71
2021/12/29 01:04:12;;;;;;;4.03;2.80;;;12.00;73.80;;;;;;6234827;28;20116;-72
2021/12/29 01:07:14;;;;;;;3.20;2.25;;;12.00;73.70;;;;;;6243140;28;20323;-72
2021/12/29 01:10:16;;;;;;;4.75;2.85;;;11.90;73.80;;;;;;6232495;28;20033;-72
2021/12/29 01:13:24;;;;;;;2.53;1.92;;;11.90;73.80;;;;;;6228544;28;20105;-72
2021/12/29 01:19:35;;;;;;;3.90;2.75;;;11.80;73.70;;;;;;6236693;28;20041;-72
2021/12/29 01:22:36;;;;;;;4.55;2.40;;;11.80;73.90;;;;;;6221973;28;20033;-72
2021/12/29 01:25:37;;;;;;;2.22;1.73;;;11.70;73.90;;;;;;6225564;28;20032;-72
2021/12/29 01:28:38;;;;;;;3.05;1.90;;;11.70;73.90;;;;;;6239998;28;20049;-72
2021/12/29 01:31:40;;;;;;;2.50;1.55;;;11.70;74.00;;;;;;6244194;28;20068;-72
2021/12/29 01:34:41;;;;;;;4.82;1.80;;;11.70;74.00;;;;;;6223978;28;20085;-72
2021/12/29 01:37:42;;;;;;;3.75;2.15;;;11.70;74.70;;;;;;6244877;28;20056;-72
2021/12/29 01:40:48;;;;;;;3.33;1.70;;;11.70;73.80;;;;;;6235953;28;20037;-71
2021/12/29 01:43:49;;;;;;;3.03;1.73;;;11.70;73.90;;;;;;6246385;28;20034;-72
2021/12/29 01:46:52;;;;;;;1.83;1.65;;;11.70;73.90;;;;;;6231800;28;20029;-71
2021/12/29 01:49:54;;;;;;;2.70;2.03;;;11.70;73.90;;;;;;6239050;28;20037;-72
2021/12/29 01:52:57;;;;;;;2.75;1.73;;;11.70;73.90;;;;;;6236485;28;20426;-71
2021/12/29 01:55:58;;;;;;;3.25;2.45;;;11.70;73.90;;;;;;6232671;28;20409;-72
2021/12/29 01:59:00;;;;;;;2.83;1.88;;;11.60;73.80;;;;;;6246007;28;20084;-71
2021/12/29 02:02:01;;;;;;;2.97;1.95;;;11.60;73.80;;;;;;6237702;28;20064;-72
2021/12/29 02:05:03;;;;;;;2.53;1.70;;;11.60;73.80;;;;;;6220065;28;20038;-72
2021/12/29 02:08:05;;;;;;;7.28;1.90;;;11.60;73.80;;;;;;6243250;28;20030;-71
2021/12/29 02:11:07;;;;;;;1.60;1.15;;;11.50;73.90;;;;;;6234940;28;20034;-71
2021/12/29 02:14:09;;;;;;;1.20;1.10;;;11.50;74.00;;;;;;6246466;28;20045;-71
2021/12/29 02:17:13;;;;;;;1.85;1.27;;;11.60;74.10;;;;;;6237056;28;20038;-72
2021/12/29 02:20:14;;;;;;;1.48;1.25;;;11.50;73.90;;;;;;6236532;28;20420;-72
2021/12/29 02:23:26;;;;;;;3.45;1.60;;;11.50;74.00;;;;;;6214245;28;20380;-72
2021/12/29 02:26:33;;;;;;;1.42;1.20;;;11.50;73.90;;;;;;6236255;28;20116;-72
2021/12/29 02:29:34;;;;;;;1.90;1.35;;;11.50;73.90;;;;;;6236871;28;20119;-72
2021/12/29 02:32:35;;;;;;;1.48;1.33;;;11.50;74.10;;;;;;6249326;28;20037;-72
2021/12/29 02:35:36;;;;;;;3.40;1.70;;;11.50;74.10;;;;;;6238110;28;20061;-72
2021/12/29 02:38:45;;;;;;;2.67;1.60;;;11.40;74.00;;;;;;6236362;28;20056;-72
2021/12/29 02:41:51;;;;;;;3.58;1.63;;;11.40;74.10;;;;;;6236962;28;20386;-72
2021/12/29 02:44:53;;;;;;;2.47;1.70;;;11.40;73.90;;;;;;6236574;28;20045;-72
2021/12/29 02:47:55;;;;;;;3.78;2.38;;;11.40;74.10;;;;;;6233956;28;20080;-72
2021/12/29 02:50:59;;;;;;;2.58;1.90;;;11.40;74.00;;;;;;6237495;28;20046;-72
2021/12/29 02:54:02;;;;;;;3.80;1.58;;;11.40;74.10;;;;;;6242992;28;20042;-72
2021/12/29 02:57:03;;;;;;;1.85;1.45;;;11.40;74.20;;;;;;6254544;28;20108;-72
2021/12/29 03:00:05;;;;;;;2.40;1.63;;;11.40;74.20;;;;;;6241760;28;20109;-72
2021/12/29 03:03:24;;;;;;;2.97;1.75;;;11.30;74.20;;;;;;6239762;28;20099;-73
2021/12/29 03:06:26;;;;;;;1.70;1.30;;;11.40;74.20;;;;;;6219287;28;20034;-73
2021/12/29 03:09:27;;;;;;;2.00;1.77;;;11.40;74.30;;;;;;6229285;28;20435;-72
2021/12/29 03:12:28;;;;;;;2.45;1.80;;;11.30;74.30;;;;;;6210003;28;20030;-72
2021/12/29 03:15:29;;;;;;;3.40;1.65;;;11.30;74.40;;;;;;6235561;28;20057;-72
2021/12/29 03:18:31;;;;;;;2.10;1.60;;;11.30;74.50;;;;;;6234417;28;20045;-72
2021/12/29 03:21:33;;;;;;;2.42;1.65;;;11.30;74.50;;;;;;6234880;28;20084;-73
2021/12/29 03:24:34;;;;;;;2.75;1.80;;;11.30;74.50;;;;;;6229011;28;20073;-72
2021/12/29 03:27:35;;;;;;;2.70;2.20;;;11.30;74.50;;;;;;6239783;28;20184;-72
2021/12/29 03:30:43;;;;;;;2.55;1.98;;;11.30;74.40;;;;;;6240504;28;20064;-72
2021/12/29 03:33:45;;;;;;;2.83;1.73;;;11.30;74.30;;;;;;6241304;28;20463;-72
2021/12/29 03:36:46;;;;;;;1.35;1.00;;;11.30;74.50;;;;;;6234126;28;20037;-72
2021/12/29 03:39:47;;;;;;;2.90;1.48;;;11.40;74.60;;;;;;6243634;28;20037;-72
2021/12/29 03:42:48;;;;;;;1.73;1.38;;;11.40;74.60;;;;;;6235000;28;20036;-72
2021/12/29 03:45:52;;;;;;;1.52;1.40;;;11.40;74.50;;;;;;6240411;28;20057;-72
2021/12/29 03:48:54;;;;;;;2.63;1.65;;;11.50;74.40;;;;;;6228889;28;20065;-72
2021/12/29 03:51:55;;;;;;;2.70;1.30;;;11.50;74.30;;;;;;6237419;28;20037;-72
2021/12/29 03:54:56;;;;;;;2.65;1.40;;;11.50;74.40;;;;;;6230461;28;20060;-72
2021/12/29 03:57:57;;;;;;;1.73;1.38;;;11.50;74.40;;;;;;6231811;28;20041;-72
2021/12/29 04:01:02;;;;;;;2.50;1.70;;;11.50;74.60;;;;;;6241728;28;20045;-72
2021/12/29 04:04:04;;;;;;;3.05;1.98;;;11.50;74.60;;;;;;6236022;28;20033;-72
2021/12/29 04:07:05;;;;;;;4.10;2.10;;;11.50;74.50;;;;;;6247618;28;20034;-72
2021/12/29 04:10:07;;;;;;;2.92;1.48;;;11.60;74.70;;;;;;6235786;28;20390;-72
2021/12/29 04:13:09;;;;;;;2.40;1.60;;;11.60;74.70;;;;;;6228336;28;20116;-72
2021/12/29 04:16:16;;;;;;;3.67;2.30;;;11.60;74.60;;;;;;6225338;28;20430;-72
2021/12/29 04:19:32;;;;;;;2.05;1.83;;;11.60;74.60;;;;;;6209816;28;20036;-72
2021/12/29 04:22:33;;;;;;;4.07;2.38;;;11.60;74.50;;;;;;6241421;28;20037;-72
2021/12/29 04:25:37;;;;;;;4.80;3.10;;;11.70;74.50;;;;;;6242069;28;20034;-72
2021/12/29 04:28:39;;;;;;;3.05;1.90;;;11.70;74.60;;;;;;6236836;28;20037;-72
2021/12/29 04:31:41;;;;;;;4.25;2.83;;;11.70;74.50;;;;;;6243707;28;20467;-72
2021/12/29 04:34:42;;;;;;;4.05;2.42;;;11.80;74.60;;;;;;6242259;28;20546;-72
2021/12/29 04:37:43;;;;;;;6.18;3.05;;;11.80;74.60;;;;;;6236734;28;20066;-71
2021/12/29 04:40:45;;;;;;;5.22;3.15;;;11.80;74.60;;;;;;6235215;28;20378;-72
2021/12/29 04:43:47;;;;;;;2.78;2.00;;;11.80;74.60;;;;;;6225717;28;20041;-72
2021/12/29 04:46:48;;;;;;;3.50;2.15;;;11.80;74.60;;;;;;6243036;28;20034;-72
2021/12/29 04:49:50;;;;;;;3.20;1.77;;;11.90;74.60;;;;;;6243464;28;20532;-72
2021/12/29 04:52:54;;;;;;;7.88;3.03;;;11.90;74.50;;;;;;6234937;28;20118;-72
2021/12/29 04:55:55;;;;;;;7.45;2.90;;;11.90;74.70;;;;;;6223833;28;20045;-72
2021/12/29 04:58:56;;;;;;;11.43;3.63;;;11.90;74.80;;;;;;6253325;28;20033;-72
2021/12/29 05:01:57;;;;;;;7.03;2.90;;;11.90;74.80;;;;;;6247004;28;20041;-72
2021/12/29 05:05:11;;;;;;;8.15;3.05;;;11.90;74.90;;;;;;6246625;28;20041;-72
2021/12/29 05:08:25;;;;;;;13.40;3.25;;;11.90;75.00;;;;;;6239198;28;20068;-73
2021/12/29 05:11:26;;;;;;;8.75;3.13;;;12.00;75.00;;;;;;6234100;28;20034;-72
2021/12/29 05:14:27;;;;;;;7.20;2.75;;;12.00;74.90;;;;;;6242040;28;20041;-73
2021/12/29 05:17:29;;;;;;;8.45;3.80;;;12.00;74.90;;;;;;6237197;28;20121;-72
2021/12/29 05:20:31;;;;;;;4.40;2.85;;;11.90;74.80;;;;;;6242541;28;20038;-72
2021/12/29 05:23:32;;;;;;;4.28;2.50;;;11.90;74.70;;;;;;6229483;28;20044;-72
2021/12/29 05:26:33;;;;;;;5.70;2.92;;;11.90;74.80;;;;;;6232486;28;20036;-72
2021/12/29 05:29:34;;;;;;;5.63;2.97;;;11.90;74.70;;;;;;6249014;28;20112;-72
2021/12/29 05:32:35;;;;;;;4.32;2.60;;;11.90;74.80;;;;;;6237305;28;20483;-72
2021/12/29 05:35:36;;;;;;;5.45;2.83;;;11.80;74.70;;;;;;6219392;28;20041;-72
2021/12/29 05:38:37;;;;;;;5.40;3.00;;;11.80;74.70;;;;;;6213657;28;20112;-72
2021/12/29 05:41:38;;;;;;;5.63;3.55;;;11.80;75.60;;;;;;6211487;28;20444;-72
2021/12/29 05:44:40;;;;;;;3.85;2.53;;;11.80;74.80;;;;;;6212152;28;20038;-72
2021/12/29 05:47:43;;;;;;;4.75;2.60;;;11.80;74.80;;;;;;6210122;28;20034;-72
2021/12/29 05:50:44;;;;;;;3.08;2.20;;;11.80;74.70;;;;;;6203156;28;20341;-72
2021/12/29 05:53:45;;;;;;;5.57;3.10;;;11.80;74.60;;;;;;6238401;28;20041;-72
2021/12/29 05:56:46;;;;;;;4.35;2.70;;;11.80;73.70;;;;;;6226529;28;20033;-72
2021/12/29 05:59:47;;;;;;;3.60;2.28;;;11.70;74.60;;;;;;6245285;28;20458;-71
2021/12/29 06:02:49;;;;;;;3.20;2.20;;;11.80;74.80;;;;;;6207806;28;20095;-73
2021/12/29 06:05:50;;;;;;;5.15;2.60;;;11.80;74.70;;;;;;6242795;28;20507;-73
2021/12/29 06:08:52;;;;;;;7.13;3.13;;;11.70;74.50;;;;;;6237136;28;20042;-73
2021/12/29 06:11:53;;;;;;;4.75;2.50;;;11.70;74.60;;;;;;6223744;28;20046;-73
2021/12/29 06:14:55;;;;;;;6.05;3.03;;;11.70;74.80;;;;;;6240839;28;20478;-73
2021/12/29 06:17:56;;;;;;;4.13;2.38;;;11.60;74.90;;;;;;6236537;28;20083;-73
2021/12/29 06:20:57;;;;;;;5.35;2.83;;;11.70;75.00;;;;;;6242940;28;20478;-73
2021/12/29 06:23:58;;;;;;;3.83;2.50;;;11.70;74.90;;;;;;6240137;28;20034;-74
2021/12/29 06:26:59;;;;;;;5.68;2.97;;;11.70;75.70;;;;;;6217531;28;20041;-73
2021/12/29 06:30:00;;;;;;;5.43;2.85;;;11.70;75.10;;;;;;6244931;28;20451;-72
2021/12/29 06:33:02;;;;;;;4.10;2.47;;;11.70;75.00;;;;;;6247169;28;20060;-72
2021/12/29 06:36:03;;;;;;;5.30;2.80;;;11.70;75.70;;;;;;6241262;28;20532;-73
2021/12/29 06:39:04;;;;;;;4.63;2.97;;;11.70;74.90;;;;;;6242824;28;20038;-73
2021/12/29 06:42:05;;;;;;;7.75;3.33;;;11.60;74.90;;;;;;6246008;28;20450;-73
2021/12/29 06:45:07;;;;;;;6.38;3.75;;;11.60;75.10;;;;;;6239373;28;20439;-72
2021/12/29 06:48:09;;;;;;;6.70;3.17;;;11.60;75.00;;;;;;6241861;28;20053;-72
2021/12/29 06:51:10;;;;;;;5.03;3.20;;;11.60;75.00;;;;;;6241925;28;20095;-72
2021/12/29 06:54:11;;;;;;;4.57;3.05;;;11.60;74.90;;;;;;6206690;28;20044;-72
2021/12/29 06:57:13;;;;;;;7.15;3.47;;;11.60;75.00;;;;;;6228012;28;20029;-72
2021/12/29 07:00:15;;;;;;;5.15;3.55;;;11.60;74.90;;;;;;6238064;28;20042;-72
2021/12/29 07:03:16;;;;;;;5.82;3.40;;;11.60;74.90;;;;;;6229948;28;20038;-72
2021/12/29 07:06:19;;;;;;;9.20;3.40;;;11.60;74.90;;;;;;6236671;28;20038;-72
2021/12/29 07:09:20;;;;;;;6.82;2.67;;;11.50;74.80;;;;;;6236275;28;20033;-72
2021/12/29 07:12:21;;;;;;;5.20;2.88;;;11.50;74.70;;;;;;6231270;28;20033;-73
2021/12/29 07:15:22;;;;;;;3.25;2.42;;;11.50;74.70;;;;;;6243493;28;20067;-72
2021/12/29 07:18:23;;;;;;;5.30;2.58;;;11.50;74.80;;;;;;6227981;28;20041;-72
2021/12/29 07:21:24;;;;;;;3.67;2.20;;;11.50;74.70;;;;;;6233850;28;20034;-72
2021/12/29 07:24:26;;;;;;;5.93;2.45;;;11.50;74.80;;;;;;6217343;28;20049;-72
2021/12/29 07:27:27;;;;;;;4.10;2.13;;;11.50;74.80;;;;;;6218300;28;20341;-72
2021/12/29 07:30:28;;;;;;;7.63;3.08;;;11.50;74.80;;;;;;6236892;28;20038;-72
2021/12/29 07:33:29;;;;;;;7.20;2.47;;;11.60;74.90;;;;;;6241254;28;20092;-72
2021/12/29 07:36:31;;;;;;;3.72;2.30;;;11.50;75.10;;;;;;6240114;28;20131;-72
2021/12/29 07:39:32;;;;;;;3.97;2.03;;;11.60;74.50;;;;;;6234899;28;20069;-71
2021/12/29 07:42:38;;;;;;;4.22;2.40;;;11.60;74.60;;;;;;6232546;28;20045;-71
2021/12/29 07:45:42;;;;;;;4.22;2.13;;;11.50;74.60;;;;;;6221505;28;20037;-72
2021/12/29 07:48:43;;;;;;;5.22;2.65;;;11.50;74.60;;;;;;6239979;28;20037;-72
2021/12/29 07:51:44;;;;;;;4.40;2.40;;;11.50;74.60;;;;;;6244317;28;20091;-72
2021/12/29 07:54:45;;;;;;;6.97;3.13;;;11.50;74.80;;;;;;6234396;28;20049;-72
2021/12/29 07:57:48;;;;;;;4.10;2.25;;;11.50;74.70;;;;;;6240268;28;20368;-72
2021/12/29 08:00:49;;;;;;;5.13;2.75;;;11.50;74.70;;;;;;6244302;28;20402;-72
2021/12/29 08:03:50;;;;;;;4.22;2.50;;;11.50;74.70;;;;;;6230838;28;20120;-72
2021/12/29 08:06:52;;;;;;;4.30;2.55;;;11.50;74.60;;;;;;6226189;28;20045;-72
2021/12/29 08:09:53;;;;;;;4.43;2.30;;;11.50;74.70;;;;;;6244173;28;20095;-72
2021/12/29 08:12:54;;;;;;;2.50;1.60;;;11.50;74.80;;;;;;6225604;28;20037;-73
2021/12/29 08:15:55;;;;;;;2.78;1.98;;;11.40;74.80;;;;;;6240019;28;20045;-73
2021/12/29 08:18:56;;;;;;;3.45;2.03;;;11.40;75.00;;;;;;6239694;28;20469;-73
2021/12/29 08:21:57;;;;;;;6.65;2.10;;;11.40;75.00;;;;;;6222160;28;20101;-73
2021/12/29 08:24:58;;;;;;;5.10;2.72;;;11.40;75.00;;;;;;6230388;28;20038;-72
2021/12/29 08:28:01;;;;;;;4.88;2.60;;;11.40;75.10;;;;;;6234552;28;20086;-72
2021/12/29 08:31:04;;;;;;;6.15;3.33;;;11.40;75.20;;;;;;6240787;28;20481;-72
2021/12/29 08:34:05;;;;;;;8.57;4.15;;;11.40;75.20;;;;;;6235722;28;20047;-72
2021/12/29 08:37:06;;;;;;;7.57;2.55;;;11.40;75.30;;;;;;6231029;28;20046;-72
2021/12/29 08:40:09;;;;;;;5.47;2.72;;;11.50;75.40;;;;;;6242416;28;20049;-73
2021/12/29 08:43:10;;;;;;;7.00;3.10;;;11.50;75.40;;;;;;6234584;28;20382;-72
2021/12/29 08:46:11;;;;;;;4.63;2.60;;;11.50;75.80;;;;;;6232756;28;20036;-72
2021/12/29 08:49:13;;;;;;;5.00;2.95;;;11.60;75.30;;;;;;6242560;28;20041;-73
2021/12/29 08:52:14;;;;;;;3.80;2.35;;;11.60;75.20;;;;;;6236725;28;20042;-73
2021/12/29 08:55:15;;;;;;;12.90;5.07;;;11.60;75.20;;;;;;6236092;28;20042;-73
2021/12/29 08:58:16;;;;;;;8.32;3.50;;;11.70;75.60;;;;;;6234452;28;20041;-72
2021/12/29 09:01:18;;;;;;;5.53;3.17;;;11.70;75.60;;;;;;6226472;28;20026;-72
2021/12/29 09:04:20;;;;;;;10.45;3.03;;;11.70;75.50;;;;;;6234627;28;20474;-73
2021/12/29 09:07:21;;;;;;;10.63;4.45;;;11.80;75.50;;;;;;6242897;28;20121;-73
2021/12/29 09:10:22;;;;;;;9.32;4.20;;;11.80;75.30;;;;;;6240789;28;20459;-73
2021/12/29 09:13:23;;;;;;;7.78;4.05;;;11.90;75.50;;;;;;6229775;28;20037;-73
2021/12/29 09:16:26;;;;;;;9.10;3.10;;;11.90;75.40;;;;;;6230024;28;20053;-73
2021/12/29 09:19:30;;;;;;;6.80;2.67;;;11.90;75.20;;;;;;6237124;28;20086;-73
2021/12/29 09:22:31;;;;;;;6.60;3.47;;;12.00;75.20;;;;;;6229216;28;20030;-73
2021/12/29 09:25:33;;;;;;;5.25;3.13;;;12.00;75.20;;;;;;6229335;28;20030;-73
2021/12/29 09:28:34;;;;;;;5.35;2.60;;;12.00;75.00;;;;;;6239758;28;20474;-73
2021/12/29 09:31:36;;;;;;;5.75;2.83;;;12.00;74.90;;;;;;6230864;28;20030;-73
2021/12/29 09:34:37;;;;;;;4.80;2.50;;;12.00;74.70;;;;;;6245511;28;20120;-74
2021/12/29 09:37:39;;;;;;;9.13;2.70;;;12.00;74.90;;;;;;6242958;28;20041;-72
2021/12/29 09:40:41;;;;;;;3.78;2.58;;;12.00;75.00;;;;;;6238090;28;20467;-73
2021/12/29 09:43:45;;;;;;;5.88;2.70;;;12.10;74.90;;;;;;6238304;28;20125;-73
2021/12/29 09:46:48;;;;;;;5.05;2.88;;;12.10;74.80;;;;;;6217364;28;20029;-73
2021/12/29 09:49:49;;;;;;;6.78;3.17;;;12.10;74.70;;;;;;6240671;28;20034;-73
2021/12/29 09:52:50;;;;;;;3.47;2.40;;;12.10;74.60;;;;;;6237221;28;20030;-72
2021/12/29 09:55:51;;;;;;;5.40;2.47;;;12.10;74.70;;;;;;6225507;28;20062;-73
2021/12/29 09:58:53;;;;;;;18.17;9.45;;;12.20;74.80;;;;;;6244969;28;20042;-73
2021/12/29 10:01:55;;;;;;;16.52;6.50;;;12.20;74.70;;;;;;6245014;28;20034;-72
2021/12/29 10:04:58;;;;;;;15.93;7.50;;;12.20;74.60;;;;;;6240501;28;20049;-72
2021/12/29 10:08:09;;;;;;;20.35;9.73;;;12.20;74.50;;;;;;6237001;28;20034;-73
2021/12/29 10:11:15;;;;;;;13.07;6.78;;;12.30;74.60;;;;;;6236221;28;20044;-73
2021/12/29 10:14:18;;;;;;;7.75;3.58;;;12.30;74.50;;;;;;6231046;28;20049;-73
2021/12/29 10:17:19;;;;;;;7.88;3.47;;;12.30;74.30;;;;;;6217483;28;20037;-73
2021/12/29 10:20:20;;;;;;;8.73;4.20;;;12.30;74.30;;;;;;6242816;28;20103;-73
2021/12/29 10:23:29;;;;;;;4.35;2.83;;;12.30;74.50;;;;;;6236139;28;20463;-73
2021/12/29 10:26:34;;;;;;;3.47;2.15;;;12.30;74.30;;;;;;6243098;28;20462;-72
2021/12/29 10:29:40;;;;;;;3.97;2.40;;;12.30;74.40;;;;;;6238166;28;20052;-72
2021/12/29 10:32:41;;;;;;;3.22;2.10;;;12.40;74.50;;;;;;6230172;28;20040;-73
2021/12/29 10:35:42;;;;;;;4.07;2.10;;;12.40;74.40;;;;;;6237964;28;20046;-73
2021/12/29 10:39:05;;;;;;;3.03;2.03;;;12.40;74.20;;;;;;6233774;28;20398;-73
2021/12/29 10:42:09;;;;;;;4.60;2.55;;;12.50;74.20;;;;;;6234705;28;20042;-72
2021/12/29 10:45:10;;;;;;;4.63;2.60;;;12.50;74.10;;;;;;6240083;28;20052;-73
2021/12/29 10:48:19;;;;;;;3.85;2.33;;;12.50;74.20;;;;;;6242580;28;20041;-73
2021/12/29 10:51:28;;;;;;;7.63;4.18;;;12.50;74.20;;;;;;6231971;28;20467;-71
2021/12/29 10:54:29;;;;;;;16.63;7.03;;;12.60;75.00;;;;;;6231629;28;20037;-73
2021/12/29 10:57:30;;;;;;;12.35;6.07;;;12.60;74.30;;;;;;6229992;28;20034;-73
2021/12/29 11:00:35;;;;;;;14.82;6.47;;;12.60;74.20;;;;;;6238849;28;20125;-73
2021/12/29 11:03:51;;;;;;;7.88;4.07;;;12.60;74.20;;;;;;6240580;28;20451;-72
2021/12/29 11:06:56;;;;;;;9.88;5.38;;;12.60;74.20;;;;;;6234887;28;20113;-73
2021/12/29 11:10:19;;;;;;;11.68;5.90;;;12.60;74.20;;;;;;6245142;28;20355;-73
2021/12/29 11:13:28;;;;;;;11.93;4.85;;;12.50;74.00;;;;;;6229003;28;20071;-74
2021/12/29 11:16:29;;;;;;;14.15;7.45;;;12.50;73.90;;;;;;6239652;28;20055;-74
2021/12/29 11:19:31;;;;;;;12.35;5.95;;;12.40;74.10;;;;;;6227572;28;20036;-73
2021/12/29 11:22:32;;;;;;;8.10;4.28;;;12.40;74.20;;;;;;6231860;28;20030;-74
2021/12/29 11:25:34;;;;;;;10.75;4.88;;;12.40;74.20;;;;;;6221772;28;20107;-74
2021/12/29 11:28:35;;;;;;;10.30;4.32;;;12.30;74.30;;;;;;6234555;28;20076;-72
2021/12/29 11:31:43;;;;;;;11.25;5.55;;;12.30;74.60;;;;;;6223927;28;20086;-73
2021/12/29 11:34:44;;;;;;;;;;;12.30;74.70;;;;;;6217822;28;20042;-73
2021/12/29 11:37:52;;;;;;;5.60;3.05;;;12.30;74.70;;;;;;6201896;28;20017;-73
2021/12/29 11:40:57;;;;;;;7.83;3.20;;;12.20;74.80;;;;;;6220989;28;20108;-72
2021/12/29 11:43:58;;;;;;;4.07;1.90;;;12.30;75.00;;;;;;6225607;28;20049;-73
2021/12/29 11:47:00;;;;;;;3.88;2.13;;;12.30;75.00;;;;;;6223697;28;20463;-72
2021/12/29 11:50:03;;;;;;;2.05;1.40;;;12.20;75.00;;;;;;6234450;28;20030;-74
2021/12/29 11:53:35;;;;;;;5.82;2.97;;;12.20;75.30;;;;;;6234352;28;20459;-72
2021/12/29 11:56:41;;;;;;;16.25;6.00;;;12.20;75.60;;;;;;6236335;28;20092;-72
2021/12/29 11:59:42;;;;;;;6.80;3.42;;;12.30;75.60;;;;;;6242407;28;20033;-73
2021/12/29 12:02:52;;;;;;;10.25;4.72;;;12.30;75.40;;;;;;6241751;28;20068;-74
2021/12/29 12:05:53;;;;;;;9.88;3.67;;;12.30;75.50;;;;;;6234487;28;20033;-73
2021/12/29 12:09:16;;;;;;;8.70;4.22;;;12.30;75.40;;;;;;6230063;28;20470;-72
2021/12/29 12:12:18;;;;;;;8.13;3.38;;;12.30;75.60;;;;;;6237315;28;20030;-73
2021/12/29 12:15:33;;;;;;;5.13;3.08;;;12.30;75.70;;;;;;6228341;28;20046;-73
2021/12/29 12:18:55;;;;;;;12.38;3.95;;;12.30;75.70;;;;;;6229462;28;20113;-72
2021/12/29 12:22:05;;;;;;;10.13;3.75;;;12.40;75.70;;;;;;6236184;28;20355;-73
2021/12/29 12:25:07;;;;;;;5.97;3.25;;;12.40;75.70;;;;;;6248367;28;20044;-73
2021/12/29 12:28:21;;;;;;;8.02;3.72;;;12.40;75.50;;;;;;6237132;28;20042;-73
2021/12/29 12:31:31;;;;;;;9.80;4.75;;;12.40;75.50;;;;;;6224902;28;20072;-73
2021/12/29 12:34:34;;;;;;;10.27;4.22;;;12.40;75.60;;;;;;6233941;28;20033;-74
2021/12/29 12:37:45;;;;;;;6.18;3.08;;;12.40;75.70;;;;;;6241002;28;20046;-73
2021/12/29 12:41:04;;;;;;;8.13;3.75;;;12.40;75.80;;;;;;6207676;28;20039;-73
2021/12/29 12:44:05;;;;;;;;;;;12.50;75.90;;;;;;6192497;28;20117;-73
2021/12/29 12:47:13;;;;;;;5.88;2.25;;;12.50;75.60;;;;;;6213381;28;19925;-72
2021/12/29 12:50:28;;;;;;;5.28;2.50;;;12.60;75.60;;;;;;6215591;28;20061;-73
2021/12/29 12:53:32;;;;;;;3.83;2.10;;;12.60;75.50;;;;;;6220320;28;20042;-74
2021/12/29 12:56:43;;;;;;;5.75;2.67;;;12.60;76.20;;;;;;6233503;28;20490;-73
2021/12/29 12:59:45;;;;;;;8.65;2.20;;;12.60;75.30;;;;;;6216535;28;20029;-73
2021/12/29 13:02:56;;;;;;;3.58;2.10;;;12.60;75.40;;;;;;6240136;28;20164;-73
2021/12/29 13:06:00;;;;;;;4.75;1.85;;;12.60;75.80;;;;;;6231839;28;20133;-73
2021/12/29 13:09:04;;;;;;;2.38;1.38;;;12.60;75.80;;;;;;6222245;28;20092;-74
2021/12/29 13:12:09;;;;;;;2.58;1.75;;;12.60;75.80;;;;;;6220800;28;20348;-73
2021/12/29 13:15:13;;;;;;;5.65;3.47;;;12.60;75.90;;;;;;6244114;28;20037;-72
2021/12/29 13:18:17;;;;;;;10.23;3.53;;;12.60;76.00;;;;;;6235920;28;20038;-73
2021/12/29 13:21:25;;;;;;;8.73;3.53;;;12.60;75.90;;;;;;6235256;28;20467;-72
2021/12/29 13:24:26;;;;;;;12.48;4.90;;;12.60;76.00;;;;;;6230227;28;20045;-74
2021/12/29 13:27:27;;;;;;;20.58;7.15;;;12.60;76.10;;;;;;6224016;28;20484;-73
2021/12/29 13:30:37;;;;;;;16.13;6.32;;;12.70;76.10;;;;;;6244792;28;20029;-74
2021/12/29 13:33:42;;;;;;;8.93;4.63;;;12.70;76.00;;;;;;6231070;28;20417;-73
2021/12/29 13:36:45;;;;;;;5.88;3.50;;;12.70;75.80;;;;;;6238584;28;20042;-73
2021/12/29 13:39:53;;;;;;;6.78;3.05;;;12.70;76.00;;;;;;6234601;28;20502;-73
2021/12/29 13:42:54;;;;;;;5.90;2.25;;;12.70;76.00;;;;;;6228222;28;20468;-73
2021/12/29 13:45:57;;;;;;;4.28;2.78;;;12.70;75.90;;;;;;6234069;28;20045;-72
2021/12/29 13:49:01;;;;;;;5.90;2.50;;;12.60;75.80;;;;;;6235886;28;20466;-74
2021/12/29 13:52:03;;;;;;;2.47;1.77;;;12.60;76.00;;;;;;6239610;28;20351;-73
2021/12/29 13:55:06;;;;;;;18.92;7.40;;;12.60;75.90;;;;;;6239431;28;20429;-73
2021/12/29 13:58:07;;;;;;;4.20;2.45;;;12.60;75.90;;;;;;6251162;28;20041;-73
2021/12/29 14:01:09;;;;;;;3.35;1.67;;;12.60;75.90;;;;;;6242726;28;20038;-73
2021/12/29 14:04:14;;;;;;;16.67;7.68;;;12.60;75.80;;;;;;6236423;28;20033;-72
2021/12/29 14:07:16;;;;;;;6.68;2.83;;;12.50;75.80;;;;;;6248009;28;20442;-73
2021/12/29 14:10:19;;;;;;;4.85;2.45;;;12.50;76.00;;;;;;6236442;28;20034;-73
2021/12/29 14:13:20;;;;;;;9.18;4.18;;;12.40;75.90;;;;;;6231247;28;20092;-73
2021/12/29 14:16:21;;;;;;;10.20;3.92;;;12.40;76.00;;;;;;6227799;28;20034;-73
2021/12/29 14:19:28;;;;;;;5.45;2.47;;;12.40;76.00;;;;;;6251484;28;20378;-74
2021/12/29 14:22:31;;;;;;;7.38;3.25;;;12.40;76.20;;;;;;6245513;28;20077;-72
2021/12/29 14:25:35;;;;;;;7.22;2.85;;;12.50;76.10;;;;;;6242402;28;20045;-73
2021/12/29 14:28:36;;;;;;;5.32;2.97;;;12.50;76.20;;;;;;6244305;28;20036;-73
2021/12/29 14:31:43;;;;;;;3.97;1.92;;;12.50;76.00;;;;;;6230030;28;20044;-74
2021/12/29 14:34:52;;;;;;;3.35;2.00;;;12.60;76.10;;;;;;6240127;28;20198;-72
2021/12/29 14:37:54;;;;;;;3.60;2.33;;;12.50;75.80;;;;;;6231306;28;20076;-73
2021/12/29 14:40:56;;;;;;;3.95;2.35;;;12.50;75.80;;;;;;6248054;28;20108;-72
2021/12/29 14:44:03;;;;;;;9.55;3.42;;;12.50;75.80;;;;;;6242391;28;20069;-72
2021/12/29 14:47:10;;;;;;;4.65;3.40;;;12.50;76.00;;;;;;6227448;28;20099;-72
2021/12/29 14:50:15;;;;;;;26.15;10.90;;;12.60;76.10;;;;;;6208157;28;20037;-72
2021/12/29 14:53:22;;;;;;;10.32;4.68;;;12.60;76.00;;;;;;6242814;28;20115;-73
2021/12/29 14:56:26;;;;;;;6.93;4.38;;;12.60;76.00;;;;;;6245045;28;20378;-72
2021/12/29 14:59:33;;;;;;;8.95;4.43;;;12.60;76.00;;;;;;6236920;28;20049;-72
2021/12/29 15:02:35;;;;;;;7.10;4.25;;;12.60;76.00;;;;;;6241678;28;20089;-73
2021/12/29 15:05:39;;;;;;;10.13;4.57;;;12.60;76.10;;;;;;6200029;28;20030;-73
2021/12/29 15:08:40;;;;;;;6.40;3.47;;;12.60;76.10;;;;;;6210485;28;20045;-73
2021/12/29 15:11:42;;;;;;;5.72;3.58;;;12.50;76.20;;;;;;6214963;28;20095;-72
2021/12/29 15:14:43;;;;;;;5.35;2.67;;;12.60;76.30;;;;;;6210369;28;20038;-73
2021/12/29 15:17:54;;;;;;;5.97;2.42;;;12.60;76.30;;;;;;6190935;28;20038;-73
2021/12/29 15:21:02;;;;;;;7.20;3.28;;;12.60;76.40;;;;;;6212695;28;20129;-73
2021/12/29 15:24:04;;;;;;;5.22;2.50;;;12.70;76.30;;;;;;6234295;28;20036;-72
2021/12/29 15:27:05;;;;;;;6.38;3.42;;;12.70;76.10;;;;;;6221847;28;20101;-72
2021/12/29 15:30:06;;;;;;;4.65;2.13;;;12.70;76.20;;;;;;6224983;28;20048;-73
2021/12/29 15:33:10;;;;;;;4.68;2.80;;;12.70;76.20;;;;;;6238081;28;20033;-74
2021/12/29 15:36:13;;;;;;;4.40;2.58;;;12.80;76.40;;;;;;6232983;28;20107;-73
2021/12/29 15:39:14;;;;;;;6.15;3.10;;;12.70;76.00;;;;;;6241096;28;20045;-74
2021/12/29 15:42:15;;;;;;;7.90;4.20;;;12.70;76.20;;;;;;6241082;28;20045;-73
2021/12/29 15:45:18;;;;;;;18.65;8.30;;;12.70;76.00;;;;;;6224740;28;20382;-74
2021/12/29 15:48:19;;;;;;;9.80;4.88;;;12.70;76.10;;;;;;6221807;28;20049;-73
2021/12/29 15:51:21;;;;;;;12.52;5.43;;;12.70;76.20;;;;;;6240438;28;20048;-73
2021/12/29 15:54:22;;;;;;;6.78;4.03;;;12.70;76.20;;;;;;6237299;28;20105;-73
2021/12/29 15:57:23;;;;;;;8.38;4.10;;;12.70;76.30;;;;;;6224160;28;20049;-73